createdAt,value
2023-04-18T00:21:54.432Z,1010.7139999999999
2023-04-18T00:52:15.326Z,1010.564
2023-04-18T01:52:54.435Z,1010.297
2023-04-18T02:23:10.576Z,1010.2719999999999
2023-04-18T02:53:27.689Z,1010.253
2023-04-18T03:23:45.682Z,1010.31
2023-04-18T03:54:03.859Z,1010.324
2023-04-18T04:24:21.256Z,1010.456
2023-04-18T04:54:39.829Z,1010.591
2023-04-18T05:25:00.526Z,1010.554
2023-04-18T05:55:20.460Z,1010.796
2023-04-18T06:25:42.186Z,1011.1189999999999
2023-04-18T06:55:59.772Z,1011.176
2023-04-18T07:26:21.097Z,1011.553
2023-04-18T07:56:40.407Z,1011.544
2023-04-18T08:26:58.943Z,1011.79
2023-04-18T08:57:18.853Z,1011.717
2023-04-18T09:27:38.742Z,1011.703
2023-04-18T09:58:16.636Z,1011.35
2023-04-18T10:28:51.651Z,1011.2439999999999
2023-04-18T10:58:53.541Z,1011.033
2023-04-18T11:29:27.739Z,1010.803
2023-04-18T11:59:42.136Z,1010.5419999999999
2023-04-18T12:29:49.599Z,1010.7560000000001
2023-04-18T13:00:14.470Z,1010.738
2023-04-18T14:31:53.661Z,1010.637
2023-04-18T15:02:17.164Z,1010.5930000000001
2023-04-18T15:32:36.812Z,1010.6519999999999
2023-04-18T16:02:55.466Z,1010.552
2023-04-18T16:33:12.586Z,1010.7810000000001
2023-04-18T17:03:28.295Z,1011.0369999999999
2023-04-18T17:33:51.648Z,1011.192
2023-04-18T18:04:08.366Z,1011.3760000000001
2023-04-18T18:34:25.243Z,1011.7360000000001
2023-04-18T19:04:42.208Z,1012.1510000000001
2023-04-18T20:05:40.230Z,1012.273
2023-04-18T20:36:02.032Z,1012.4069999999999
2023-04-18T21:06:22.972Z,1012.4739999999999
2023-04-18T21:36:41.073Z,1012.577
2023-04-18T22:37:17.266Z,1012.304
2023-04-18T23:07:39.205Z,1012.3330000000001
2023-04-18T23:37:58.680Z,1012.284
